Time;durP1;ratioP1;P1;durP2;ratioP2;P2;SDS_P1;SDS_P2;PMS_P1;PMS_P2;Temp;Humidity;BMP_temperature;BMP_pressure;BME280_temperature;BME280_humidity;BME280_pressure;Samples;Min_cycle;Max_cycle;Signal;HPM_P1;HPM_P2
2023/01/27 00:00:38;;;;;;;29.93;15.07;;;3.90;97.60;;;;;;5059352;28;20032;-84
2023/01/27 00:03:04;;;;;;;24.80;15.80;;;3.90;97.80;;;;;;5059999;28;20496;-85
2023/01/27 00:05:29;;;;;;;24.35;15.48;;;3.90;97.80;;;;;;5065606;28;20151;-84
2023/01/27 00:07:57;;;;;;;27.42;15.15;;;3.90;97.80;;;;;;5070499;28;20522;-79
2023/01/27 00:10:23;;;;;;;21.52;14.68;;;3.90;97.80;;;;;;5062406;28;20036;-76
2023/01/27 00:15:34;;;;;;;35.50;16.77;;;3.90;97.80;;;;;;5058714;28;20048;-76
2023/01/27 00:18:00;;;;;;;24.05;15.13;;;3.90;97.80;;;;;;5065794;28;20094;-78
2023/01/27 00:26:07;;;;;;;18.88;13.55;;;3.90;97.80;;;;;;5057550;28;20052;-77
2023/01/27 00:28:34;;;;;;;18.45;13.05;;;3.90;98.10;;;;;;5061263;28;20110;-77
2023/01/27 00:31:00;;;;;;;20.35;13.15;;;3.90;97.80;;;;;;5064235;28;20139;-77
2023/01/27 00:33:26;;;;;;;29.92;13.77;;;3.90;97.70;;;;;;5061665;28;20139;-79
2023/01/27 00:36:10;;;;;;;19.05;13.05;;;3.90;97.70;;;;;;5062463;28;20040;-82
2023/01/27 00:38:40;;;;;;;22.65;13.15;;;3.90;97.70;;;;;;5062594;28;20467;-77
2023/01/27 00:41:18;;;;;;;17.03;12.50;;;3.90;97.70;;;;;;5062991;28;20805;-80
2023/01/27 00:43:54;;;;;;;21.52;12.52;;;3.90;97.70;;;;;;5061398;28;20050;-77
2023/01/27 00:46:23;;;;;;;20.00;13.68;;;3.80;97.70;;;;;;5064198;28;20040;-77
2023/01/27 00:48:53;;;;;;;18.65;13.23;;;3.90;97.80;;;;;;5053623;28;20123;-76
2023/01/27 00:51:19;;;;;;;19.10;13.23;;;3.80;97.80;;;;;;5068551;28;20051;-79
2023/01/27 00:53:46;;;;;;;21.05;14.23;;;3.80;97.90;;;;;;5061442;28;20045;-76
2023/01/27 00:56:12;;;;;;;22.15;14.60;;;3.80;97.90;;;;;;5061861;28;20036;-77
2023/01/27 00:58:38;;;;;;;18.67;14.20;;;3.80;97.90;;;;;;5061808;28;20083;-77
2023/01/27 01:01:07;;;;;;;19.92;15.00;;;3.80;97.90;;;;;;5061795;28;20123;-76
2023/01/27 01:03:33;;;;;;;;;;;3.80;97.90;;;;;;5061649;28;20044;-77
2023/01/27 01:06:02;;;;;;;18.52;14.05;;;3.80;97.80;;;;;;5066601;28;19928;-77
2023/01/27 01:08:29;;;;;;;18.05;12.63;;;3.80;97.90;;;;;;5060553;28;20385;-76
2023/01/27 01:10:55;;;;;;;18.23;12.18;;;3.80;97.80;;;;;;5062101;28;20063;-76
2023/01/27 01:13:21;;;;;;;16.92;12.30;;;3.80;97.80;;;;;;5062094;28;20044;-76
2023/01/27 01:15:47;;;;;;;14.82;10.85;;;3.80;97.80;;;;;;5060223;28;20044;-77
2023/01/27 01:18:13;;;;;;;13.90;10.20;;;3.80;97.80;;;;;;5064709;28;20048;-77
2023/01/27 01:20:42;;;;;;;18.38;9.88;;;3.80;97.70;;;;;;5062519;28;20404;-78
2023/01/27 01:23:08;;;;;;;;;;;3.90;97.70;;;;;;5062357;28;20112;-76
2023/01/27 01:25:34;;;;;;;14.77;9.65;;;3.80;97.60;;;;;;5066746;28;19981;-76
2023/01/27 01:28:02;;;;;;;14.95;9.18;;;3.80;97.70;;;;;;5063044;28;20033;-77
2023/01/27 01:30:28;;;;;;;15.87;10.07;;;3.80;97.70;;;;;;5063538;28;20045;-78
2023/01/27 01:32:54;;;;;;;18.58;10.90;;;3.80;97.70;;;;;;5060365;28;20359;-77
2023/01/27 01:35:21;;;;;;;16.45;11.95;;;3.80;97.70;;;;;;5061079;28;20515;-78
2023/01/27 01:37:47;;;;;;;18.38;11.88;;;3.80;97.60;;;;;;5060189;28;20040;-76
2023/01/27 01:40:13;;;;;;;15.80;11.20;;;3.80;97.60;;;;;;5060064;28;20052;-77
2023/01/27 01:42:51;;;;;;;14.38;9.77;;;3.80;97.60;;;;;;5061721;28;20519;-76
2023/01/27 01:45:32;;;;;;;17.70;9.57;;;3.80;97.60;;;;;;5074199;28;20048;-78
2023/01/27 01:48:02;;;;;;;12.85;8.55;;;3.80;97.50;;;;;;5041899;28;20048;-77
2023/01/27 01:50:28;;;;;;;14.03;8.07;;;3.80;97.50;;;;;;5057870;28;20041;-76
2023/01/27 01:52:54;;;;;;;15.88;7.97;;;3.80;97.40;;;;;;5090960;28;20044;-80
2023/01/27 01:55:22;;;;;;;12.93;7.33;;;3.90;97.40;;;;;;5056038;28;20095;-77
2023/01/27 01:57:48;;;;;;;9.87;6.83;;;3.80;97.30;;;;;;5062218;28;20036;-76
2023/01/27 02:00:15;;;;;;;11.93;6.40;;;3.90;97.30;;;;;;5055092;28;20558;-77
2023/01/27 02:02:42;;;;;;;7.63;5.50;;;3.80;97.20;;;;;;5056823;28;20098;-79
2023/01/27 02:05:20;;;;;;;12.48;6.35;;;3.90;97.20;;;;;;5062133;28;20132;-79
2023/01/27 02:07:51;;;;;;;8.52;6.20;;;3.90;97.00;;;;;;5052081;28;20048;-77
2023/01/27 02:10:17;;;;;;;7.95;5.55;;;3.90;96.90;;;;;;5063310;28;20052;-79
2023/01/27 02:12:45;;;;;;;8.40;5.25;;;3.90;96.80;;;;;;5060201;28;21067;-76
2023/01/27 02:15:11;;;;;;;8.00;5.15;;;3.90;96.60;;;;;;5078252;28;20040;-76
2023/01/27 02:17:37;;;;;;;7.05;4.70;;;3.90;96.40;;;;;;5095330;28;20546;-76
2023/01/27 02:20:16;;;;;;;7.25;4.50;;;3.90;96.10;;;;;;5061496;28;20049;-76
2023/01/27 02:22:44;;;;;;;8.27;3.90;;;4.00;96.10;;;;;;5061754;28;20052;-77
2023/01/27 02:25:45;;;;;;;5.97;3.50;;;4.00;95.70;;;;;;5062698;28;20052;-77
2023/01/27 02:28:10;;;;;;;5.65;3.28;;;4.00;95.20;;;;;;5054129;28;20871;-76
2023/01/27 02:30:36;;;;;;;6.15;3.00;;;4.10;95.20;;;;;;5061275;28;20093;-76
2023/01/27 02:33:01;;;;;;;6.30;2.97;;;4.10;95.00;;;;;;5059449;28;20053;-76
2023/01/27 02:35:38;;;;;;;4.35;2.85;;;4.10;95.20;;;;;;5071863;28;20036;-77
2023/01/27 02:38:05;;;;;;;3.30;2.50;;;4.10;95.10;;;;;;5059390;28;20063;-76
2023/01/27 02:40:32;;;;;;;3.15;2.33;;;4.10;94.80;;;;;;5061623;28;20040;-77
2023/01/27 02:42:58;;;;;;;3.00;2.70;;;4.10;94.70;;;;;;5057665;28;20128;-76
2023/01/27 02:45:24;;;;;;;5.78;2.60;;;4.20;94.40;;;;;;5062247;28;20048;-77
2023/01/27 02:47:49;;;;;;;4.13;2.70;;;4.20;94.30;;;;;;5062309;28;20037;-76
2023/01/27 02:50:16;;;;;;;5.72;2.83;;;4.10;94.50;;;;;;5057987;28;20048;-77
2023/01/27 02:52:42;;;;;;;6.13;2.80;;;4.10;94.40;;;;;;5093425;28;20040;-78
2023/01/27 02:55:08;;;;;;;4.55;2.80;;;4.10;94.30;;;;;;5058216;28;20055;-77
2023/01/27 02:57:34;;;;;;;6.15;3.00;;;4.20;94.30;;;;;;5067618;28;20157;-76
2023/01/27 02:59:59;;;;;;;6.28;2.85;;;4.20;94.30;;;;;;5043310;28;20556;-77
2023/01/27 03:02:29;;;;;;;4.50;2.70;;;4.10;94.00;;;;;;5061000;28;20086;-77
2023/01/27 03:04:55;;;;;;;4.85;2.63;;;4.10;94.00;;;;;;5056080;28;20473;-84
2023/01/27 03:07:21;;;;;;;4.53;2.65;;;4.10;93.60;;;;;;5059426;28;20087;-76
2023/01/27 03:09:47;;;;;;;5.28;2.80;;;4.20;93.60;;;;;;5061044;28;20064;-78
2023/01/27 03:12:18;;;;;;;5.53;2.60;;;4.20;93.70;;;;;;5061224;28;20120;-76
2023/01/27 03:20:13;;;;;;;5.97;2.73;;;4.10;93.60;;;;;;5060814;28;20094;-75
2023/01/27 03:22:40;;;;;;;3.97;2.40;;;4.10;93.50;;;;;;5053638;28;20093;-77
2023/01/27 03:25:06;;;;;;;4.63;2.73;;;4.10;93.30;;;;;;5062744;28;20042;-76
2023/01/27 03:27:33;;;;;;;3.95;2.40;;;4.10;93.30;;;;;;5044617;28;20101;-75
2023/01/27 03:29:59;;;;;;;4.07;2.83;;;4.10;93.30;;;;;;5040653;28;20572;-77
2023/01/27 03:32:27;;;;;;;8.60;2.87;;;4.10;93.20;;;;;;5061265;28;20056;-77
2023/01/27 03:34:56;;;;;;;3.50;2.90;;;4.10;93.20;;;;;;5057173;28;20646;-77
2023/01/27 03:48:21;;;;;;;6.00;3.15;;;4.00;93.50;;;;;;5063323;28;20845;-81
2023/01/27 03:50:52;;;;;;;4.82;2.83;;;4.00;93.40;;;;;;5063099;28;20044;-77
2023/01/27 03:53:19;;;;;;;5.90;2.90;;;4.00;93.30;;;;;;5061046;28;20064;-76
2023/01/27 03:55:47;;;;;;;4.80;2.85;;;4.00;93.10;;;;;;5066242;28;20048;-76
2023/01/27 03:58:18;;;;;;;7.60;3.30;;;4.00;93.10;;;;;;5063579;28;20033;-76
2023/01/27 04:00:46;;;;;;;5.50;3.33;;;4.00;93.30;;;;;;5063219;28;20041;-76
2023/01/27 04:08:43;;;;;;;4.88;3.10;;;3.90;93.70;;;;;;5066493;28;20044;-77
2023/01/27 04:13:53;;;;;;;4.68;3.03;;;3.90;93.60;;;;;;5067159;28;20044;-76
2023/01/27 04:16:27;;;;;;;4.45;3.15;;;3.90;93.40;;;;;;5063426;28;20420;-76
2023/01/27 04:18:54;;;;;;;5.82;3.22;;;3.90;93.40;;;;;;5068489;28;20056;-77
2023/01/27 04:21:27;;;;;;;7.97;3.63;;;3.90;93.30;;;;;;5062219;28;20051;-76
2023/01/27 04:23:52;;;;;;;5.28;2.97;;;4.00;93.40;;;;;;5090189;28;20049;-77
2023/01/27 04:26:19;;;;;;;7.05;3.30;;;3.90;93.40;;;;;;5052188;28;20442;-77
2023/01/27 04:28:45;;;;;;;10.63;3.10;;;3.90;93.60;;;;;;5057701;28;20067;-76
2023/01/27 04:31:11;;;;;;;8.00;3.37;;;3.90;93.70;;;;;;5064366;28;20060;-78
2023/01/27 04:33:36;;;;;;;6.32;3.17;;;3.90;93.70;;;;;;5063184;28;20650;-76
2023/01/27 04:36:02;;;;;;;6.93;3.05;;;3.90;93.80;;;;;;5061576;28;20045;-76
2023/01/27 04:38:28;;;;;;;6.68;3.30;;;3.80;93.70;;;;;;5061160;28;20053;-78
2023/01/27 04:40:54;;;;;;;8.75;3.53;;;3.80;93.70;;;;;;5059591;28;20040;-76
2023/01/27 04:43:19;;;;;;;5.38;3.38;;;3.80;93.50;;;;;;5058744;28;21130;-76
2023/01/27 04:45:45;;;;;;;7.35;3.30;;;3.80;93.40;;;;;;5063067;28;20956;-77
2023/01/27 04:48:10;;;;;;;5.50;3.33;;;3.80;93.50;;;;;;5060914;28;20040;-76
2023/01/27 04:50:36;;;;;;;11.57;3.95;;;3.80;93.50;;;;;;5062158;28;20037;-76
2023/01/27 04:53:01;;;;;;;7.75;3.55;;;3.80;93.50;;;;;;5060034;28;20754;-76
2023/01/27 04:55:27;;;;;;;7.00;5.10;;;3.80;93.30;;;;;;5061797;28;20056;-76
2023/01/27 04:57:53;;;;;;;8.43;3.35;;;3.80;93.30;;;;;;5063434;28;20028;-77
2023/01/27 05:00:19;;;;;;;3.63;2.77;;;3.80;93.20;;;;;;5045927;28;20045;-76
2023/01/27 05:02:44;;;;;;;6.35;3.22;;;3.80;93.30;;;;;;5060763;28;20040;-77
2023/01/27 05:05:10;;;;;;;5.57;3.03;;;3.80;93.20;;;;;;5057787;28;20487;-79
2023/01/27 05:07:36;;;;;;;6.35;3.33;;;3.80;93.20;;;;;;5060024;28;20055;-77
2023/01/27 05:10:02;;;;;;;4.43;3.00;;;3.80;93.20;;;;;;5058379;28;20032;-78
2023/01/27 05:12:28;;;;;;;4.75;3.08;;;3.80;93.40;;;;;;5069325;28;20065;-76
2023/01/27 05:14:53;;;;;;;5.30;3.22;;;3.80;93.40;;;;;;5068971;28;20645;-79
2023/01/27 05:17:19;;;;;;;9.38;3.10;;;3.80;93.40;;;;;;5063953;28;20396;-79
2023/01/27 05:19:44;;;;;;;6.60;3.17;;;3.80;93.40;;;;;;5058140;28;20036;-80
2023/01/27 05:22:10;;;;;;;6.75;3.00;;;3.80;93.40;;;;;;5055704;28;20400;-77
2023/01/27 05:24:39;;;;;;;6.03;3.40;;;3.80;93.30;;;;;;5059869;28;20051;-76
2023/01/27 05:27:05;;;;;;;4.67;3.17;;;3.70;93.30;;;;;;5060894;28;20401;-76
2023/01/27 05:29:31;;;;;;;6.50;3.30;;;3.70;93.40;;;;;;5061159;28;20044;-77
2023/01/27 05:31:57;;;;;;;4.90;3.40;;;3.70;93.40;;;;;;5043235;28;20458;-76
2023/01/27 05:34:22;;;;;;;9.02;4.00;;;3.70;93.30;;;;;;5059080;28;20051;-76
2023/01/27 05:36:48;;;;;;;8.15;4.45;;;3.70;93.50;;;;;;5064007;28;20602;-76
2023/01/27 05:39:14;;;;;;;8.77;4.80;;;3.70;93.30;;;;;;5063704;28;20047;-76
2023/01/27 05:41:39;;;;;;;9.17;5.43;;;3.70;93.30;;;;;;5065824;28;20048;-76
2023/01/27 05:44:05;;;;;;;12.50;6.43;;;3.70;93.40;;;;;;5061577;28;20024;-76
2023/01/27 05:46:32;;;;;;;12.00;7.22;;;3.70;93.40;;;;;;5058469;28;20059;-76
2023/01/27 05:49:04;;;;;;;13.48;7.05;;;3.70;93.40;;;;;;5061566;28;20056;-77
2023/01/27 05:51:32;;;;;;;12.17;7.57;;;3.70;93.40;;;;;;5078096;28;20535;-76
2023/01/27 05:53:58;;;;;;;9.48;6.75;;;3.70;93.40;;;;;;5090437;28;20044;-76
2023/01/27 05:56:25;;;;;;;8.20;6.50;;;3.60;93.50;;;;;;5062113;28;20678;-78
2023/01/27 05:58:53;;;;;;;13.10;6.90;;;3.60;93.50;;;;;;5064020;28;20067;-77
2023/01/27 06:01:27;;;;;;;14.85;6.55;;;3.60;93.80;;;;;;5058086;28;20131;-76
2023/01/27 06:03:53;;;;;;;13.13;6.57;;;3.60;93.70;;;;;;5062231;28;20052;-77
2023/01/27 06:06:20;;;;;;;10.18;6.40;;;3.60;93.80;;;;;;5060604;28;20102;-76
2023/01/27 06:08:48;;;;;;;11.32;6.30;;;3.60;94.00;;;;;;5064399;28;20037;-76
2023/01/27 06:11:15;;;;;;;10.90;6.10;;;3.60;94.00;;;;;;5063464;28;20101;-76
2023/01/27 06:13:41;;;;;;;11.27;5.50;;;3.60;94.00;;;;;;5064436;28;20087;-77
2023/01/27 06:16:10;;;;;;;9.73;5.25;;;3.60;94.10;;;;;;5059622;28;20063;-76
2023/01/27 06:18:37;;;;;;;7.68;5.57;;;3.60;94.00;;;;;;5060915;28;20040;-76
2023/01/27 06:21:04;;;;;;;9.80;5.47;;;3.60;94.10;;;;;;5069099;28;20048;-77
2023/01/27 06:23:30;;;;;;;11.90;5.03;;;3.60;94.30;;;;;;5062934;28;20127;-76
2023/01/27 06:25:59;;;;;;;10.15;5.30;;;3.50;94.40;;;;;;5063353;28;20133;-76
2023/01/27 06:28:25;;;;;;;12.13;5.72;;;3.50;94.40;;;;;;5061849;28;20458;-78
2023/01/27 06:30:51;;;;;;;10.27;4.67;;;3.50;94.60;;;;;;5061661;28;20055;-76
2023/01/27 06:33:17;;;;;;;9.23;4.37;;;3.50;94.60;;;;;;5062977;28;20090;-77
2023/01/27 06:35:43;;;;;;;8.93;4.50;;;3.50;94.90;;;;;;5062073;28;20151;-76
2023/01/27 06:38:13;;;;;;;9.13;4.50;;;3.50;94.60;;;;;;5063015;28;20528;-76
2023/01/27 06:40:39;;;;;;;7.10;4.20;;;3.50;94.70;;;;;;5059677;28;20049;-77
2023/01/27 06:43:10;;;;;;;12.00;4.10;;;3.50;95.10;;;;;;5058632;28;20044;-77
2023/01/27 06:45:36;;;;;;;7.95;4.22;;;3.50;94.80;;;;;;5056644;28;20789;-77
2023/01/27 06:48:02;;;;;;;10.18;4.43;;;3.50;94.90;;;;;;5062258;28;20025;-76
2023/01/27 06:50:28;;;;;;;11.38;4.43;;;3.50;94.90;;;;;;5059719;28;20040;-78
2023/01/27 06:53:02;;;;;;;5.63;4.18;;;3.50;94.90;;;;;;5060911;28;20040;-76
2023/01/27 06:55:28;;;;;;;9.93;5.00;;;3.50;94.90;;;;;;5057041;28;20052;-77
2023/01/27 06:57:54;;;;;;;9.67;5.23;;;3.50;95.00;;;;;;5055115;28;20128;-76
2023/01/27 07:00:20;;;;;;;12.10;4.80;;;3.50;95.00;;;;;;5060460;28;20198;-77
2023/01/27 07:02:45;;;;;;;9.07;5.13;;;3.50;94.90;;;;;;5056192;28;20044;-77
2023/01/27 07:05:12;;;;;;;11.40;4.63;;;3.50;95.00;;;;;;5058716;28;20041;-76
2023/01/27 07:07:37;;;;;;;8.73;4.93;;;3.50;95.10;;;;;;5058182;28;20040;-76
2023/01/27 07:10:04;;;;;;;10.77;5.40;;;3.50;95.10;;;;;;5057593;28;20040;-77
2023/01/27 07:12:30;;;;;;;9.80;4.78;;;3.50;95.20;;;;;;5062096;28;20044;-78
2023/01/27 07:14:55;;;;;;;9.30;4.13;;;3.50;95.20;;;;;;5060262;28;20036;-77
2023/01/27 07:17:21;;;;;;;6.85;4.15;;;3.50;95.20;;;;;;5058382;28;20040;-77
2023/01/27 07:19:47;;;;;;;7.00;4.05;;;3.50;95.30;;;;;;5062055;28;20432;-78
2023/01/27 07:22:12;;;;;;;11.35;4.22;;;3.50;95.40;;;;;;5065718;28;20044;-77
2023/01/27 07:24:38;;;;;;;8.80;3.50;;;3.50;95.40;;;;;;5062461;28;20075;-76
2023/01/27 07:27:03;;;;;;;5.82;3.50;;;3.50;95.40;;;;;;5063694;28;20056;-78
2023/01/27 07:29:29;;;;;;;10.18;3.30;;;3.40;95.50;;;;;;5057330;28;20045;-76
2023/01/27 07:31:54;;;;;;;13.18;3.70;;;3.40;95.60;;;;;;5061125;28;20167;-77
2023/01/27 07:34:20;;;;;;;6.97;3.23;;;3.40;95.70;;;;;;5063072;28;20135;-77
2023/01/27 07:36:45;;;;;;;7.85;3.55;;;3.40;95.90;;;;;;5060246;28;20068;-76
2023/01/27 07:39:11;;;;;;;7.78;3.75;;;3.40;95.80;;;;;;5072145;28;20032;-77
2023/01/27 07:41:37;;;;;;;7.87;3.50;;;3.40;95.90;;;;;;5060614;28;20467;-78
2023/01/27 07:44:02;;;;;;;12.38;4.13;;;3.40;96.00;;;;;;5060517;28;20036;-77
2023/01/27 07:46:28;;;;;;;7.53;3.57;;;3.40;96.00;;;;;;5062958;28;20113;-77
2023/01/27 07:48:53;;;;;;;9.50;3.53;;;3.30;96.10;;;;;;5064543;28;20852;-77
2023/01/27 07:51:24;;;;;;;13.93;4.20;;;3.30;96.20;;;;;;5063822;28;20431;-84
2023/01/27 07:53:50;;;;;;;9.00;3.93;;;3.20;96.20;;;;;;5060920;28;20051;-78
2023/01/27 07:56:16;;;;;;;10.20;4.40;;;3.20;96.30;;;;;;5062922;28;20048;-79
2023/01/27 07:58:42;;;;;;;10.20;4.07;;;3.10;96.40;;;;;;5061788;28;20070;-83
2023/01/27 08:01:09;;;;;;;9.27;4.20;;;3.10;96.50;;;;;;5052690;28;20115;-76
2023/01/27 08:03:35;;;;;;;24.83;4.30;;;3.10;96.60;;;;;;5059963;28;20051;-78
2023/01/27 08:06:09;;;;;;;8.23;3.73;;;3.00;96.80;;;;;;5061671;28;20033;-84
2023/01/27 08:08:35;;;;;;;11.43;4.27;;;3.00;96.80;;;;;;5062559;28;20044;-78
2023/01/27 08:11:03;;;;;;;14.77;4.40;;;2.90;96.80;;;;;;5057178;28;20041;-79
2023/01/27 08:13:30;;;;;;;8.47;4.10;;;2.90;97.00;;;;;;5062680;28;20507;-76
2023/01/27 08:16:00;;;;;;;18.40;4.80;;;2.80;97.00;;;;;;5061900;28;20295;-77
2023/01/27 08:18:27;;;;;;;13.17;4.90;;;2.80;97.00;;;;;;5068703;28;20043;-77
2023/01/27 08:20:53;;;;;;;11.20;5.23;;;2.80;97.10;;;;;;5061983;28;20393;-76
2023/01/27 08:23:21;;;;;;;9.73;5.00;;;2.80;97.30;;;;;;5049316;28;20058;-77
2023/01/27 08:25:54;;;;;;;14.73;5.90;;;2.80;97.40;;;;;;5065698;28;20083;-76
2023/01/27 08:28:22;;;;;;;9.70;5.20;;;2.70;97.20;;;;;;5066861;28;20071;-78
2023/01/27 08:30:51;;;;;;;13.17;5.60;;;2.70;97.30;;;;;;5060772;28;20549;-77
2023/01/27 08:33:21;;;;;;;11.57;4.87;;;2.70;97.40;;;;;;5074461;28;20686;-77
2023/01/27 08:35:48;;;;;;;10.73;5.00;;;2.70;97.50;;;;;;5064382;28;20039;-77
2023/01/27 08:38:17;;;;;;;9.87;5.33;;;2.70;97.50;;;;;;5064680;28;20150;-77
2023/01/27 08:40:42;;;;;;;15.10;5.18;;;2.60;97.50;;;;;;5065848;28;20595;-76
2023/01/27 08:43:09;;;;;;;10.80;5.23;;;2.60;97.50;;;;;;5062067;28;20051;-76
2023/01/27 08:45:35;;;;;;;11.80;5.30;;;2.70;97.60;;;;;;5063565;28;20089;-76
2023/01/27 08:48:02;;;;;;;12.83;5.40;;;2.70;97.80;;;;;;5094658;28;20036;-80
2023/01/27 08:50:31;;;;;;;10.47;5.33;;;2.80;97.90;;;;;;5057943;28;20032;-76
2023/01/27 08:52:58;;;;;;;12.32;5.18;;;2.80;97.90;;;;;;5094354;28;20093;-75
2023/01/27 08:55:28;;;;;;;13.50;5.07;;;2.90;97.90;;;;;;5092963;28;20064;-78
2023/01/27 08:57:54;;;;;;;13.00;5.50;;;3.00;97.90;;;;;;5060959;28;20047;-78
2023/01/27 09:00:20;;;;;;;13.77;5.57;;;3.10;97.90;;;;;;5061283;28;20040;-77
2023/01/27 09:02:46;;;;;;;12.73;5.37;;;3.10;97.80;;;;;;5058003;28;20067;-77
2023/01/27 09:05:12;;;;;;;13.10;5.10;;;3.20;97.70;;;;;;5092695;28;20428;-78
2023/01/27 09:07:38;;;;;;;15.00;5.83;;;3.30;97.70;;;;;;5057610;28;20052;-77
2023/01/27 09:10:05;;;;;;;10.93;5.20;;;3.30;97.70;;;;;;5089119;28;21444;-78
2023/01/27 09:12:30;;;;;;;11.02;5.07;;;3.40;97.70;;;;;;5060284;28;20048;-77
2023/01/27 09:14:57;;;;;;;9.47;5.60;;;3.40;97.90;;;;;;5061021;28;20029;-77
2023/01/27 09:17:26;;;;;;;8.20;4.63;;;3.50;97.60;;;;;;5059738;28;20511;-78
2023/01/27 09:19:52;;;;;;;14.77;5.47;;;3.50;97.60;;;;;;5061213;28;20857;-77
2023/01/27 09:22:17;;;;;;;11.37;4.50;;;3.60;97.60;;;;;;5060466;28;20040;-78
2023/01/27 09:24:43;;;;;;;11.30;5.30;;;3.60;97.60;;;;;;5057711;28;20521;-78
2023/01/27 09:27:09;;;;;;;11.20;5.53;;;3.70;97.50;;;;;;5069353;28;20056;-77
2023/01/27 09:29:35;;;;;;;14.53;5.40;;;3.70;97.50;;;;;;5047301;28;20089;-78
2023/01/27 09:32:01;;;;;;;12.60;5.40;;;3.70;97.40;;;;;;5079133;28;20080;-78
2023/01/27 09:34:28;;;;;;;12.07;5.10;;;3.80;97.40;;;;;;5064422;28;20044;-77
2023/01/27 09:36:57;;;;;;;11.68;5.60;;;3.80;97.20;;;;;;5065430;28;20082;-77
2023/01/27 09:39:24;;;;;;;9.00;5.15;;;3.90;97.30;;;;;;5065491;28;20056;-77
2023/01/27 09:41:59;;;;;;;9.77;5.00;;;4.00;97.30;;;;;;5079740;28;20119;-79
2023/01/27 09:44:53;;;;;;;10.80;5.18;;;4.00;97.20;;;;;;5065819;28;20047;-77
2023/01/27 09:47:41;;;;;;;8.82;4.60;;;4.10;97.10;;;;;;5063310;28;20056;-77
2023/01/27 09:50:24;;;;;;;14.27;4.88;;;4.10;97.00;;;;;;5069771;28;20052;-77
2023/01/27 09:53:19;;;;;;;10.30;4.60;;;4.20;97.00;;;;;;5093367;28;20063;-77
2023/01/27 09:56:11;;;;;;;9.57;4.70;;;4.20;96.70;;;;;;5070793;28;20640;-78
2023/01/27 09:59:15;;;;;;;8.23;4.30;;;4.30;96.70;;;;;;5061493;28;20068;-76
2023/01/27 10:01:43;;;;;;;9.63;4.55;;;4.30;96.50;;;;;;5077641;28;20515;-79
2023/01/27 10:04:18;;;;;;;12.85;4.22;;;4.30;96.50;;;;;;5057180;28;20779;-77
2023/01/27 10:07:02;;;;;;;9.57;3.95;;;4.30;96.40;;;;;;5066114;28;20040;-77
2023/01/27 10:09:38;;;;;;;10.98;4.40;;;4.40;96.50;;;;;;5062868;28;20079;-77
2023/01/27 10:12:36;;;;;;;8.93;4.25;;;4.40;96.50;;;;;;5072349;28;20534;-78
2023/01/27 10:15:20;;;;;;;5.75;3.90;;;4.40;96.20;;;;;;5062601;28;20103;-77
2023/01/27 10:18:07;;;;;;;5.83;3.60;;;4.40;95.90;;;;;;5080516;28;20500;-77
2023/01/27 10:20:38;;;;;;;6.63;3.75;;;4.40;95.80;;;;;;5061166;28;20127;-80
2023/01/27 10:23:22;;;;;;;7.82;4.13;;;4.40;95.90;;;;;;5046533;28;20056;-78
2023/01/27 10:25:57;;;;;;;7.03;3.75;;;4.50;95.90;;;;;;5066380;28;20488;-79
2023/01/27 10:28:27;;;;;;;9.70;3.75;;;4.50;95.70;;;;;;5067104;28;20143;-79
2023/01/27 10:31:00;;;;;;;6.22;3.50;;;4.50;95.60;;;;;;5064319;28;20052;-79
2023/01/27 10:33:43;;;;;;;5.53;3.30;;;4.50;95.60;;;;;;5047038;28;20045;-81
2023/01/27 10:36:25;;;;;;;6.13;3.10;;;4.60;95.50;;;;;;5054505;28;20048;-81
2023/01/27 10:39:11;;;;;;;5.25;2.88;;;4.60;95.40;;;;;;5075946;28;20492;-81
2023/01/27 10:41:56;;;;;;;4.90;2.65;;;4.60;94.50;;;;;;5067045;28;20041;-80
2023/01/27 10:44:51;;;;;;;3.60;2.47;;;4.60;94.20;;;;;;5051417;28;20032;-79
2023/01/27 10:47:46;;;;;;;2.90;2.70;;;4.70;94.50;;;;;;5054415;28;20053;-80
2023/01/27 10:50:25;;;;;;;8.07;2.80;;;4.70;94.40;;;;;;5057526;28;20029;-79
2023/01/27 10:52:56;;;;;;;5.63;3.35;;;4.80;94.50;;;;;;5057812;28;20123;-79
2023/01/27 10:55:27;;;;;;;4.93;3.25;;;4.70;93.30;;;;;;5067801;28;20048;-80
2023/01/27 10:57:56;;;;;;;4.38;3.58;;;4.80;93.80;;;;;;5067748;28;20040;-78
2023/01/27 11:00:42;;;;;;;3.70;3.08;;;4.80;93.80;;;;;;5059078;28;20446;-79
2023/01/27 11:03:22;;;;;;;3.63;3.08;;;4.80;93.40;;;;;;5096300;28;20076;-78
2023/01/27 11:06:15;;;;;;;3.40;3.10;;;4.80;93.40;;;;;;5060644;28;20063;-78
2023/01/27 11:08:45;;;;;;;3.30;3.00;;;4.80;93.20;;;;;;5062063;28;20741;-79
2023/01/27 11:14:28;;;;;;;4.38;3.30;;;4.70;93.10;;;;;;5062833;28;20068;-78
2023/01/27 11:17:17;;;;;;;3.78;3.30;;;4.80;93.40;;;;;;5067833;28;20032;-77
2023/01/27 11:19:59;;;;;;;4.03;3.03;;;4.80;93.10;;;;;;5066229;28;20376;-80
2023/01/27 11:22:56;;;;;;;3.95;3.10;;;4.70;92.90;;;;;;5065340;28;20512;-82
2023/01/27 11:25:25;;;;;;;3.28;2.97;;;4.70;92.60;;;;;;5066205;28;20029;-79
2023/01/27 11:28:42;;;;;;;4.43;2.95;;;4.70;92.90;;;;;;5063250;28;20060;-79
2023/01/27 11:31:33;;;;;;;4.30;3.03;;;4.70;92.70;;;;;;5034042;28;20139;-77
2023/01/27 11:34:37;;;;;;;5.07;3.20;;;4.60;92.70;;;;;;5062140;28;20056;-75
2023/01/27 11:37:34;;;;;;;3.58;2.80;;;4.60;92.60;;;;;;5057497;28;20496;-75
2023/01/27 11:40:01;;;;;;;5.25;3.72;;;4.60;92.20;;;;;;5053686;28;20051;-78
2023/01/27 11:42:33;;;;;;;5.43;3.53;;;4.50;92.80;;;;;;5055079;28;20520;-80
2023/01/27 11:45:00;;;;;;;3.50;3.20;;;4.50;93.00;;;;;;5051132;28;20052;-81
2023/01/27 11:47:33;;;;;;;3.75;3.00;;;4.50;92.90;;;;;;5052509;28;20048;-76
2023/01/27 11:49:59;;;;;;;2.88;2.67;;;4.50;92.70;;;;;;5054025;28;20047;-80
2023/01/27 11:52:27;;;;;;;2.60;2.40;;;4.50;92.80;;;;;;5058666;28;20496;-76
2023/01/27 11:55:16;;;;;;;2.92;2.63;;;4.50;92.50;;;;;;5059546;28;20393;-79
2023/01/27 11:57:46;;;;;;;3.00;2.70;;;4.50;92.50;;;;;;5054178;28;20444;-78
2023/01/27 12:00:25;;;;;;;7.60;4.05;;;4.50;92.70;;;;;;5060075;28;20411;-80
2023/01/27 12:02:58;;;;;;;3.85;3.25;;;4.50;92.60;;;;;;5060454;28;20210;-80
2023/01/27 12:05:30;;;;;;;3.20;2.90;;;4.50;92.70;;;;;;5057415;28;20138;-78
2023/01/27 12:08:00;;;;;;;6.55;4.13;;;4.50;92.60;;;;;;5062046;28;20036;-78
2023/01/27 12:10:32;;;;;;;9.48;7.40;;;4.60;92.90;;;;;;5058552;28;20040;-79
2023/01/27 12:13:07;;;;;;;5.25;4.72;;;4.50;92.70;;;;;;5059987;28;21165;-78
2023/01/27 12:15:34;;;;;;;6.05;5.20;;;4.50;92.50;;;;;;5067269;28;20055;-78
2023/01/27 12:18:07;;;;;;;5.43;4.10;;;4.50;92.60;;;;;;5073954;28;20051;-78
2023/01/27 12:20:35;;;;;;;3.55;3.25;;;4.50;92.80;;;;;;5065682;28;20053;-78
2023/01/27 12:23:17;;;;;;;3.30;3.00;;;4.50;92.90;;;;;;5080806;28;20131;-78
2023/01/27 12:25:46;;;;;;;3.78;3.30;;;4.50;92.50;;;;;;5055774;28;20542;-78
2023/01/27 12:28:35;;;;;;;5.38;4.20;;;4.50;92.80;;;;;;5066576;28;20048;-78
2023/01/27 12:31:08;;;;;;;10.30;7.40;;;4.50;92.70;;;;;;5067156;28;20439;-80
2023/01/27 12:33:37;;;;;;;10.57;4.25;;;4.40;92.80;;;;;;5065386;28;20052;-77
2023/01/27 12:36:13;;;;;;;4.25;3.10;;;4.50;92.90;;;;;;5086309;28;20032;-78
2023/01/27 12:38:45;;;;;;;3.42;2.80;;;4.40;92.90;;;;;;5067774;28;20053;-78
2023/01/27 12:41:18;;;;;;;3.20;2.90;;;4.40;93.00;;;;;;5065817;28;20089;-77
2023/01/27 12:43:58;;;;;;;3.20;2.90;;;4.50;93.10;;;;;;5065628;28;20503;-79
2023/01/27 12:46:27;;;;;;;2.80;2.60;;;4.50;93.00;;;;;;5063777;28;20052;-78
2023/01/27 12:49:01;;;;;;;4.13;3.10;;;4.40;92.90;;;;;;5066345;28;20025;-77
2023/01/27 12:51:43;;;;;;;1.80;1.60;;;4.40;92.50;;;;;;5066163;28;20041;-77
2023/01/27 12:54:19;;;;;;;3.67;2.65;;;4.40;91.90;;;;;;5064054;28;20044;-78
2023/01/27 12:56:45;;;;;;;2.17;1.75;;;4.40;92.00;;;;;;5067405;28;20040;-79
2023/01/27 12:59:16;;;;;;;1.92;1.80;;;4.40;92.20;;;;;;5066371;28;20029;-79
2023/01/27 13:01:45;;;;;;;2.97;1.90;;;4.40;91.90;;;;;;5066319;28;20044;-78
2023/01/27 13:04:17;;;;;;;3.00;2.47;;;4.40;92.00;;;;;;5066936;28;20036;-78
2023/01/27 13:06:48;;;;;;;2.85;2.40;;;4.50;92.00;;;;;;5063029;28;20135;-78
2023/01/27 13:09:33;;;;;;;3.90;2.78;;;4.40;92.20;;;;;;5065174;28;20766;-78
2023/01/27 13:12:20;;;;;;;3.08;2.70;;;4.40;92.50;;;;;;5065317;28;20048;-78
2023/01/27 13:14:50;;;;;;;2.80;2.60;;;4.40;92.10;;;;;;5047003;28;20059;-78
2023/01/27 13:17:34;;;;;;;2.50;1.95;;;4.40;92.10;;;;;;5067471;28;20040;-80
2023/01/27 13:20:26;;;;;;;3.05;2.00;;;4.40;91.60;;;;;;5065262;28;20094;-77
2023/01/27 13:23:17;;;;;;;4.18;2.38;;;4.30;92.00;;;;;;5059037;28;20048;-81
2023/01/27 13:25:57;;;;;;;2.33;2.20;;;4.30;91.90;;;;;;5049615;28;20045;-78
2023/01/27 13:28:43;;;;;;;4.22;3.15;;;4.30;92.10;;;;;;5079707;28;20040;-79
2023/01/27 13:31:33;;;;;;;5.55;3.30;;;4.30;91.90;;;;;;5065312;28;20513;-79
2023/01/27 13:34:07;;;;;;;4.22;3.83;;;4.30;92.10;;;;;;5081230;28;20088;-78
2023/01/27 13:36:50;;;;;;;4.60;4.18;;;4.30;92.40;;;;;;5064309;28;20043;-78
2023/01/27 13:39:18;;;;;;;4.28;3.88;;;4.30;92.30;;;;;;5058551;28;20097;-78
2023/01/27 13:42:07;;;;;;;4.70;4.20;;;4.30;92.30;;;;;;5071806;28;20541;-78
2023/01/27 13:44:41;;;;;;;5.15;4.65;;;4.30;92.40;;;;;;5069884;28;20044;-79
2023/01/27 13:47:23;;;;;;;5.18;4.70;;;4.30;92.70;;;;;;5065736;28;20468;-77